Time;durP1;ratioP1;P1;durP2;ratioP2;P2;SDS_P1;SDS_P2;PMS_P1;PMS_P2;Temp;Humidity;BMP_temperature;BMP_pressure;BME280_temperature;BME280_humidity;BME280_pressure;Samples;Min_cycle;Max_cycle;Signal;HPM_P1;HPM_P2
2022/01/22 00:00:51;;;;;;;17.38;2.72;;;;;;;;;;5004257;28;96808;-74
2022/01/22 00:03:17;;;;;;;24.60;2.70;;;;;;;;;;4994197;28;97247;-73
2022/01/22 00:05:44;;;;;;;14.07;2.30;;;;;;;;;;4994839;28;95198;-73
2022/01/22 00:08:10;;;;;;;15.80;2.40;;;;;;;;;;4985034;28;96866;-74
2022/01/22 00:10:41;;;;;;;21.15;3.63;;;;;;;;;;5002554;28;97437;-73
2022/01/22 00:14:23;;;;;;;16.23;2.80;;;;;;;;;;4974870;28;95162;-73
2022/01/22 00:15:54;;;;;;;17.48;3.05;;;;;;;;;;4973742;28;96707;-74
2022/01/22 00:18:20;;;;;;;19.40;2.85;;;;;;;;;;4978468;28;97343;-73
2022/01/22 00:20:47;;;;;;;23.90;2.90;;;;;;;;;;5000206;28;95329;-74
2022/01/22 00:23:16;;;;;;;11.30;2.25;;;;;;;;;;4973651;28;97341;-73
2022/01/22 00:25:42;;;;;;;13.90;2.60;;;;;;;;;;4974506;28;95357;-74
2022/01/22 00:28:08;;;;;;;16.40;2.53;;;;;;;;;;4980652;28;96655;-73
2022/01/22 00:30:35;;;;;;;14.90;2.72;;;;;;;;;;4993987;28;97694;-74
2022/01/22 00:33:01;;;;;;;17.77;3.22;;;;;;;;;;4994067;28;95338;-73
2022/01/22 00:35:28;;;;;;;20.50;3.10;;;;;;;;;;4993602;28;97298;-73
2022/01/22 00:37:54;;;;;;;14.75;3.10;;;;;;;;;;4989609;28;96554;-75
2022/01/22 00:40:21;;;;;;;23.95;3.45;;;;;;;;;;4991837;28;95182;-73
2022/01/22 00:42:48;;;;;;;24.80;3.33;;;;;;;;;;4996607;28;96876;-73
2022/01/22 00:45:14;;;;;;;23.45;3.47;;;;;;;;;;4994369;28;95872;-74
2022/01/22 00:47:41;;;;;;;16.33;3.35;;;;;;;;;;4991195;28;97373;-74
2022/01/22 00:50:09;;;;;;;26.50;3.83;;;;;;;;;;4986556;28;97287;-73
2022/01/22 00:52:35;;;;;;;21.15;3.63;;;;;;;;;;4994027;28;95315;-74
2022/01/22 00:55:01;;;;;;;17.80;3.38;;;;;;;;;;4994328;28;96868;-74
2022/01/22 00:57:27;;;;;;;15.05;3.42;;;;;;;;;;4993175;28;96928;-74
2022/01/22 00:59:55;;;;;;;16.27;3.22;;;;;;;;;;4985944;28;95227;-73
2022/01/22 01:02:22;;;;;;;20.42;3.13;;;;;;;;;;4993432;28;96893;-73
2022/01/22 01:04:48;;;;;;;14.10;3.33;;;;;;;;;;4996540;28;97315;-75
2022/01/22 01:07:15;;;;;;;18.75;3.17;;;;;;;;;;4993888;28;96875;-74
2022/01/22 01:09:41;;;;;;;18.08;3.35;;;;;;;;;;4993486;28;97719;-74
2022/01/22 01:12:11;;;;;;;32.85;3.90;;;;;;;;;;5013679;28;95563;-75
2022/01/22 01:14:48;;;;;;;19.23;3.80;;;;;;;;;;5014467;28;96662;-74
2022/01/22 01:17:46;;;;;;;16.98;3.10;;;;;;;;;;5013623;28;97341;-75
2022/01/22 01:34:01;;;;;;;27.25;3.42;;;;;;;;;;4993516;28;95244;-74
2022/01/22 01:36:28;;;;;;;18.60;3.65;;;;;;;;;;4992300;28;96942;-75
2022/01/22 01:38:58;;;;;;;24.10;4.30;;;;;;;;;;4989695;28;97637;-73
2022/01/22 01:41:40;;;;;;;26.95;4.95;;;;;;;;;;4999549;28;95393;-73
2022/01/22 01:44:07;;;;;;;17.85;3.80;;;;;;;;;;5008298;28;96609;-73
2022/01/22 01:46:34;;;;;;;18.63;4.60;;;;;;;;;;4991325;28;97338;-72
2022/01/22 01:49:02;;;;;;;26.38;4.95;;;;;;;;;;4993443;28;95382;-72
2022/01/22 01:51:30;;;;;;;24.58;4.45;;;;;;;;;;4987058;28;97293;-73
2022/01/22 01:59:09;;;;;;;17.80;4.47;;;;;;;;;;4992622;28;97525;-73
2022/01/22 02:01:35;;;;;;;24.95;5.05;;;;;;;;;;4991014;28;95290;-74
2022/01/22 02:04:02;;;;;;;23.20;4.72;;;;;;;;;;4996106;28;95824;-73
2022/01/22 02:06:28;;;;;;;26.95;5.28;;;;;;;;;;4983053;28;97288;-72
2022/01/22 02:08:54;;;;;;;26.73;5.18;;;;;;;;;;4976941;28;95381;-73
2022/01/22 02:11:24;;;;;;;25.52;4.20;;;;;;;;;;5000851;28;95739;-73
2022/01/22 02:24:50;;;;;;;23.98;4.88;;;;;;;;;;4973216;28;96806;-73
2022/01/22 02:27:17;;;;;;;23.15;4.95;;;;;;;;;;4982988;28;96555;-73
2022/01/22 02:29:44;;;;;;;22.17;4.93;;;;;;;;;;4991199;28;95157;-73
2022/01/22 02:32:49;;;;;;;21.38;5.03;;;;;;;;;;5012114;28;96895;-74
2022/01/22 02:35:25;;;;;;;31.60;5.88;;;;;;;;;;5014635;28;97978;-73
2022/01/22 02:37:58;;;;;;;31.15;6.00;;;;;;;;;;4991276;28;97377;-73
2022/01/22 02:40:33;;;;;;;26.52;5.63;;;;;;;;;;4985091;28;97319;-73
2022/01/22 02:43:00;;;;;;;25.70;6.55;;;;;;;;;;4991905;28;95698;-73
2022/01/22 02:45:26;;;;;;;22.17;5.25;;;;;;;;;;4992449;28;96825;-73
2022/01/22 02:47:53;;;;;;;21.15;5.70;;;;;;;;;;4985345;28;97316;-73
2022/01/22 02:50:21;;;;;;;21.75;5.80;;;;;;;;;;4987842;28;95388;-73
2022/01/22 02:52:47;;;;;;;25.50;5.15;;;;;;;;;;5012364;28;96835;-73
2022/01/22 02:55:14;;;;;;;22.13;5.45;;;;;;;;;;5011955;28;97338;-74
2022/01/22 02:57:43;;;;;;;31.80;6.15;;;;;;;;;;4995645;28;95336;-72
2022/01/22 03:00:11;;;;;;;18.02;5.82;;;;;;;;;;4985359;28;96169;-73
2022/01/22 03:02:38;;;;;;;23.60;5.60;;;;;;;;;;5015847;28;95195;-73
2022/01/22 03:05:06;;;;;;;23.52;5.50;;;;;;;;;;5015383;28;96790;-74
2022/01/22 03:07:32;;;;;;;20.52;5.65;;;;;;;;;;5005525;28;96409;-73
2022/01/22 03:10:02;;;;;;;20.08;5.32;;;;;;;;;;4997075;28;95806;-73
2022/01/22 03:27:51;;;;;;;21.88;3.90;;;;;;;;;;5003026;28;97724;-73
2022/01/22 03:30:17;;;;;;;16.63;4.22;;;;;;;;;;5001911;28;95313;-73
2022/01/22 03:32:48;;;;;;;28.95;4.50;;;;;;;;;;4995077;28;96810;-73
2022/01/22 03:37:51;;;;;;;16.27;4.15;;;;;;;;;;4992518;28;95431;-73
2022/01/22 03:40:20;;;;;;;14.70;4.53;;;;;;;;;;5009343;28;96167;-73
2022/01/22 03:42:48;;;;;;;22.60;4.00;;;;;;;;;;5015325;28;95285;-73
2022/01/22 03:45:14;;;;;;;21.20;4.10;;;;;;;;;;5015232;28;96857;-73
2022/01/22 03:47:41;;;;;;;17.38;4.10;;;;;;;;;;5011947;28;97611;-75
2022/01/22 03:50:08;;;;;;;22.30;4.20;;;;;;;;;;4998252;28;95312;-73
2022/01/22 03:52:35;;;;;;;22.63;4.03;;;;;;;;;;5014290;28;96867;-73
2022/01/22 03:55:02;;;;;;;13.05;3.95;;;;;;;;;;5014917;28;97228;-73
2022/01/22 03:57:29;;;;;;;18.00;3.60;;;;;;;;;;5012889;28;95332;-73
2022/01/22 03:59:56;;;;;;;13.90;3.85;;;;;;;;;;4991831;28;97581;-74
2022/01/22 04:05:08;;;;;;;25.17;4.00;;;;;;;;;;4975217;28;97229;-72
2022/01/22 04:08:08;;;;;;;27.23;4.05;;;;;;;;;;4978856;28;97600;-72
2022/01/22 04:10:35;;;;;;;18.75;4.05;;;;;;;;;;4974636;28;95177;-72
2022/01/22 04:13:06;;;;;;;18.13;3.58;;;;;;;;;;4974521;28;96973;-73
2022/01/22 04:15:36;;;;;;;23.60;4.45;;;;;;;;;;4972817;28;96492;-73
2022/01/22 04:28:46;;;;;;;18.50;4.65;;;;;;;;;;4984903;28;97426;-73
2022/01/22 04:31:12;;;;;;;25.88;4.22;;;;;;;;;;4994539;28;95365;-74
2022/01/22 04:33:39;;;;;;;23.13;4.50;;;;;;;;;;4992785;28;96750;-73
2022/01/22 04:36:06;;;;;;;22.48;4.82;;;;;;;;;;4993738;28;97290;-73
2022/01/22 04:38:32;;;;;;;27.40;5.20;;;;;;;;;;4997434;28;95452;-73
2022/01/22 04:40:59;;;;;;;21.83;4.60;;;;;;;;;;4980687;28;96821;-73
2022/01/22 04:43:27;;;;;;;22.45;5.03;;;;;;;;;;4992470;28;97303;-72
2022/01/22 04:46:11;;;;;;;22.50;5.22;;;;;;;;;;4994402;28;95393;-73
2022/01/22 04:56:37;;;;;;;21.30;4.85;;;;;;;;;;4973833;28;97453;-73
2022/01/22 04:59:03;;;;;;;24.38;5.35;;;;;;;;;;4982593;28;95288;-72
2022/01/22 05:01:30;;;;;;;24.85;5.13;;;;;;;;;;4989774;28;96881;-73
2022/01/22 05:03:56;;;;;;;24.75;5.20;;;;;;;;;;4981684;28;96196;-74
2022/01/22 05:06:22;;;;;;;25.00;5.07;;;;;;;;;;4993803;28;95240;-72
2022/01/22 05:08:49;;;;;;;25.13;5.07;;;;;;;;;;4997763;28;97077;-72
2022/01/22 05:11:17;;;;;;;21.48;4.65;;;;;;;;;;4984196;28;96589;-73
2022/01/22 05:13:43;;;;;;;21.00;5.65;;;;;;;;;;4988675;28;97230;-74
2022/01/22 05:16:09;;;;;;;28.40;5.38;;;;;;;;;;4973202;28;97802;-73
2022/01/22 05:18:44;;;;;;;18.63;5.35;;;;;;;;;;4977784;28;95319;-72
2022/01/22 05:21:14;;;;;;;24.98;5.03;;;;;;;;;;4992496;28;96999;-72
2022/01/22 05:23:41;;;;;;;18.92;5.32;;;;;;;;;;4983384;28;97612;-73
2022/01/22 05:26:24;;;;;;;16.88;5.63;;;;;;;;;;4993204;28;95382;-74
2022/01/22 05:31:44;;;;;;;26.48;6.45;;;;;;;;;;5011988;28;97585;-76
2022/01/22 05:37:04;;;;;;;27.90;6.07;;;;;;;;;;4993344;28;97865;-76
2022/01/22 05:39:32;;;;;;;26.83;6.25;;;;;;;;;;4996706;28;95488;-75
2022/01/22 05:42:00;;;;;;;25.40;5.40;;;;;;;;;;5013444;28;96802;-73
2022/01/22 05:44:27;;;;;;;31.55;5.97;;;;;;;;;;4994254;28;97394;-72
2022/01/22 05:46:57;;;;;;;27.20;6.00;;;;;;;;;;4981703;28;95615;-73
2022/01/22 05:49:26;;;;;;;16.60;5.75;;;;;;;;;;4988736;28;96932;-72
2022/01/22 05:51:56;;;;;;;26.35;6.60;;;;;;;;;;4972479;28;97823;-75
2022/01/22 05:59:40;;;;;;;25.05;6.00;;;;;;;;;;4992206;28;117185;-74
2022/01/22 06:02:07;;;;;;;24.63;5.47;;;;;;;;;;4992733;28;96946;-74
2022/01/22 06:04:34;;;;;;;22.83;5.43;;;;;;;;;;4973234;28;97291;-73
2022/01/22 06:07:01;;;;;;;23.60;4.85;;;;;;;;;;4982256;28;96519;-74
2022/01/22 06:09:28;;;;;;;22.08;4.88;;;;;;;;;;4992827;28;96860;-74
2022/01/22 06:12:15;;;;;;;22.88;5.63;;;;;;;;;;4993001;28;97590;-75
2022/01/22 06:14:42;;;;;;;20.85;5.50;;;;;;;;;;4992639;28;95148;-75
2022/01/22 06:17:09;;;;;;;18.33;5.40;;;;;;;;;;5007012;28;96756;-74
2022/01/22 06:19:35;;;;;;;24.60;5.22;;;;;;;;;;4992502;28;95324;-75
2022/01/22 06:22:02;;;;;;;22.17;4.72;;;;;;;;;;4972661;28;96921;-73
2022/01/22 06:24:28;;;;;;;18.55;4.63;;;;;;;;;;4972632;28;97253;-75
2022/01/22 06:26:58;;;;;;;19.10;4.70;;;;;;;;;;5010191;28;95372;-73
2022/01/22 06:29:24;;;;;;;23.55;5.10;;;;;;;;;;5012255;28;96791;-73
2022/01/22 06:31:50;;;;;;;22.10;4.28;;;;;;;;;;4993017;28;96158;-74
2022/01/22 06:34:17;;;;;;;16.48;4.38;;;;;;;;;;4991842;28;94993;-73
2022/01/22 06:36:44;;;;;;;18.15;4.50;;;;;;;;;;5006465;28;97213;-74
2022/01/22 06:39:18;;;;;;;22.77;4.43;;;;;;;;;;5013409;28;98610;-73
2022/01/22 06:41:45;;;;;;;21.38;4.28;;;;;;;;;;4991649;28;96868;-74
2022/01/22 06:44:12;;;;;;;23.38;4.38;;;;;;;;;;4992994;28;97377;-73
2022/01/22 06:46:40;;;;;;;24.00;5.15;;;;;;;;;;4992800;28;95585;-74
2022/01/22 06:49:07;;;;;;;17.80;4.40;;;;;;;;;;4992363;28;96797;-73
2022/01/22 06:51:34;;;;;;;19.33;4.47;;;;;;;;;;4977623;28;98468;-74
2022/01/22 06:54:01;;;;;;;17.70;4.30;;;;;;;;;;4981927;28;95409;-75
2022/01/22 06:56:29;;;;;;;14.50;4.28;;;;;;;;;;5011837;28;96761;-74
2022/01/22 06:58:57;;;;;;;16.13;3.90;;;;;;;;;;5012209;28;97753;-74
2022/01/22 07:01:24;;;;;;;22.65;4.22;;;;;;;;;;4995790;28;95843;-75
2022/01/22 07:03:51;;;;;;;18.08;4.28;;;;;;;;;;4975761;28;97367;-73
2022/01/22 07:06:18;;;;;;;17.45;4.55;;;;;;;;;;4985661;28;95423;-74
2022/01/22 07:08:44;;;;;;;19.48;4.35;;;;;;;;;;4991532;28;95869;-73
2022/01/22 07:11:12;;;;;;;23.08;4.28;;;;;;;;;;4987815;28;97221;-74
2022/01/22 07:13:39;;;;;;;17.23;4.00;;;;;;;;;;4977373;28;95156;-73
2022/01/22 07:16:05;;;;;;;14.63;4.75;;;;;;;;;;4983566;28;97075;-74
2022/01/22 07:18:32;;;;;;;14.50;3.90;;;;;;;;;;4970200;28;97610;-74
2022/01/22 07:21:02;;;;;;;14.13;3.80;;;;;;;;;;4972501;28;95344;-74
2022/01/22 07:23:56;;;;;;;22.90;4.03;;;;;;;;;;4975120;28;96853;-74
2022/01/22 07:26:18;;;;;;;17.45;3.40;;;;;;;;;;4972153;28;95407;-74
2022/01/22 07:28:44;;;;;;;17.92;3.22;;;;;;;;;;4972381;28;95711;-74
2022/01/22 07:31:11;;;;;;;13.52;3.03;;;;;;;;;;4971086;28;97296;-75
2022/01/22 07:33:37;;;;;;;18.52;4.35;;;;;;;;;;4987448;28;95233;-76
2022/01/22 07:36:04;;;;;;;17.25;3.08;;;;;;;;;;4972199;28;96793;-75
2022/01/22 16:06:22;;;;;;;27.52;12.85;;;;;;;;;;5050534;27;95311;-76
2022/01/22 16:08:49;;;;;;;28.73;13.30;;;;;;;;;;5048672;27;97282;-73
2022/01/22 16:11:36;;;;;;;28.58;13.27;;;;;;;;;;5046069;27;95419;-73
2022/01/22 16:14:22;;;;;;;35.00;17.70;;;;;;;;;;5048270;27;97918;-74
2022/01/22 16:16:49;;;;;;;33.90;15.63;;;;;;;;;;5052466;27;97344;-74
2022/01/22 16:19:17;;;;;;;36.22;14.88;;;;;;;;;;5047939;27;95440;-74
2022/01/22 16:21:43;;;;;;;31.60;14.82;;;;;;;;;;5047775;27;96710;-75
2022/01/22 16:24:10;;;;;;;25.33;14.40;;;;;;;;;;5048052;27;97295;-73
2022/01/22 16:26:36;;;;;;;28.00;14.23;;;;;;;;;;5052164;27;95152;-73
2022/01/22 16:29:03;;;;;;;27.60;14.40;;;;;;;;;;5048456;27;97707;-74
2022/01/22 16:31:30;;;;;;;27.55;15.57;;;;;;;;;;5047590;27;95401;-74
2022/01/22 16:34:00;;;;;;;35.65;13.77;;;;;;;;;;5046464;27;96462;-74
2022/01/22 16:36:27;;;;;;;31.55;14.63;;;;;;;;;;5047229;27;97885;-73
2022/01/22 16:38:53;;;;;;;27.85;14.18;;;;;;;;;;5048282;27;95907;-75
2022/01/22 16:41:20;;;;;;;28.77;14.10;;;;;;;;;;5047641;27;96865;-73
2022/01/22 16:43:51;;;;;;;26.50;13.65;;;;;;;;;;5048123;27;97352;-74
2022/01/22 16:46:32;;;;;;;33.83;14.63;;;;;;;;;;5053545;27;95322;-74
2022/01/22 16:52:04;;;;;;;32.83;16.17;;;;;;;;;;5056634;27;96103;-75
2022/01/22 16:57:12;;;;;;;30.77;13.95;;;;;;;;;;5068301;27;97290;-74
2022/01/22 16:59:51;;;;;;;24.30;14.43;;;;;;;;;;5057328;27;95113;-74
2022/01/22 17:02:24;;;;;;;33.08;15.57;;;;;;;;;;5041828;27;96377;-75
2022/01/22 17:04:54;;;;;;;28.60;15.80;;;;;;;;;;5046904;27;97710;-74
2022/01/22 17:07:33;;;;;;;29.10;18.00;;;;;;;;;;5047292;27;95783;-74
2022/01/22 17:10:05;;;;;;;29.85;15.80;;;;;;;;;;5048434;27;96856;-75
2022/01/22 17:15:17;;;;;;;25.05;15.35;;;;;;;;;;5043143;27;96639;-76
2022/01/22 17:17:43;;;;;;;45.63;16.92;;;;;;;;;;5013558;28;97509;-73
2022/01/22 17:20:10;;;;;;;32.83;16.90;;;;;;;;;;5032934;28;95364;-76
2022/01/22 17:22:36;;;;;;;32.63;16.05;;;;;;;;;;5033742;27;96673;-76
2022/01/22 17:25:02;;;;;;;29.95;17.13;;;;;;;;;;5034774;27;97398;-77
2022/01/22 17:27:29;;;;;;;28.85;17.13;;;;;;;;;;5033935;27;95311;-77
2022/01/22 17:29:55;;;;;;;34.53;18.02;;;;;;;;;;5033907;28;95520;-74
2022/01/22 17:32:22;;;;;;;36.45;19.67;;;;;;;;;;5031738;28;97843;-75
2022/01/22 17:34:49;;;;;;;28.48;16.63;;;;;;;;;;5036764;28;95160;-76
2022/01/22 17:37:18;;;;;;;25.17;15.82;;;;;;;;;;5052000;27;97372;-75
2022/01/22 17:39:44;;;;;;;36.67;16.05;;;;;;;;;;5054096;27;95690;-76
2022/01/22 17:42:17;;;;;;;30.58;16.42;;;;;;;;;;5053666;27;96796;-76
2022/01/22 17:44:49;;;;;;;21.95;14.25;;;;;;;;;;5032632;28;98089;-77
2022/01/22 17:47:20;;;;;;;25.60;15.35;;;;;;;;;;5036391;27;95200;-76
2022/01/22 17:49:46;;;;;;;30.60;14.80;;;;;;;;;;5033300;28;96731;-77
2022/01/22 17:52:13;;;;;;;24.58;13.77;;;;;;;;;;5025050;28;97367;-77
2022/01/22 17:54:39;;;;;;;24.98;13.68;;;;;;;;;;5020720;28;95789;-76
2022/01/22 17:57:06;;;;;;;27.13;15.80;;;;;;;;;;5020121;27;96862;-76
2022/01/22 17:59:33;;;;;;;30.52;14.02;;;;;;;;;;5028823;27;95391;-78
2022/01/22 18:02:02;;;;;;;26.98;14.77;;;;;;;;;;5031521;27;96786;-78
2022/01/22 18:04:30;;;;;;;24.83;13.68;;;;;;;;;;5028508;27;97265;-77
2022/01/22 18:06:57;;;;;;;25.33;14.00;;;;;;;;;;5022635;27;95240;-77
2022/01/22 18:09:23;;;;;;;24.02;14.32;;;;;;;;;;5028025;28;96862;-76
2022/01/22 18:11:52;;;;;;;26.52;14.65;;;;;;;;;;5028667;27;97329;-74
2022/01/22 18:14:18;;;;;;;27.55;14.52;;;;;;;;;;5019121;28;95173;-76
2022/01/22 18:16:45;;;;;;;32.67;14.15;;;;;;;;;;5030557;27;96806;-75
2022/01/22 18:19:11;;;;;;;26.58;14.95;;;;;;;;;;5034979;27;95287;-76
2022/01/22 18:21:38;;;;;;;24.10;13.35;;;;;;;;;;5031015;28;96744;-76
2022/01/22 18:24:06;;;;;;;29.27;14.10;;;;;;;;;;5017544;28;97335;-76
2022/01/22 18:26:33;;;;;;;27.20;14.52;;;;;;;;;;5031460;27;96658;-76
2022/01/22 18:29:00;;;;;;;26.30;14.40;;;;;;;;;;5031873;27;96819;-75
2022/01/22 18:31:27;;;;;;;28.77;13.43;;;;;;;;;;5029765;28;96228;-76
2022/01/22 18:33:53;;;;;;;23.85;13.23;;;;;;;;;;5015137;27;95251;-73
2022/01/22 18:36:20;;;;;;;26.90;12.70;;;;;;;;;;5026133;27;96824;-74
2022/01/22 18:38:46;;;;;;;25.92;13.95;;;;;;;;;;5023694;27;97706;-73
2022/01/22 18:41:13;;;;;;;27.77;12.90;;;;;;;;;;5021515;28;97107;-73
2022/01/22 18:43:42;;;;;;;28.67;12.95;;;;;;;;;;5021163;28;97136;-73
2022/01/22 18:46:15;;;;;;;27.05;12.85;;;;;;;;;;5021277;27;96787;-74
2022/01/22 18:49:02;;;;;;;24.60;12.80;;;;;;;;;;5020373;28;96849;-73
2022/01/22 18:51:28;;;;;;;32.42;13.63;;;;;;;;;;5021688;28;99139;-73
2022/01/22 18:53:54;;;;;;;21.38;12.55;;;;;;;;;;5019405;28;96548;-75
2022/01/22 18:56:21;;;;;;;22.35;12.00;;;;;;;;;;5022000;27;96775;-75
2022/01/22 18:58:47;;;;;;;24.48;12.35;;;;;;;;;;5028515;27;97648;-75
2022/01/22 19:01:16;;;;;;;26.70;13.32;;;;;;;;;;5024725;27;96079;-76
2022/01/22 19:03:43;;;;;;;25.20;13.13;;;;;;;;;;5019652;28;97581;-75
2022/01/22 19:06:10;;;;;;;26.15;13.38;;;;;;;;;;5021186;27;97369;-73
2022/01/22 19:08:37;;;;;;;31.55;15.82;;;;;;;;;;5022221;28;96934;-76
2022/01/22 19:11:03;;;;;;;28.83;15.50;;;;;;;;;;5021509;27;97249;-73
2022/01/22 19:13:30;;;;;;;30.73;16.42;;;;;;;;;;5021146;28;97002;-75
2022/01/22 19:15:56;;;;;;;36.15;19.45;;;;;;;;;;5020774;27;97080;-74
2022/01/22 19:18:23;;;;;;;37.17;20.88;;;;;;;;;;5023164;28;97510;-73
2022/01/22 19:20:53;;;;;;;38.70;21.95;;;;;;;;;;5023423;27;97210;-76
2022/01/22 19:23:29;;;;;;;39.47;23.13;;;;;;;;;;5022713;28;96771;-76
2022/01/22 19:28:41;;;;;;;42.53;25.73;;;;;;;;;;5020398;28;97048;-73
2022/01/22 19:31:07;;;;;;;44.63;23.65;;;;;;;;;;5019750;27;97609;-76
2022/01/22 19:33:34;;;;;;;46.67;25.67;;;;;;;;;;5022257;27;95556;-75
2022/01/22 19:36:00;;;;;;;46.85;26.13;;;;;;;;;;5021735;27;96853;-74
2022/01/22 19:38:27;;;;;;;46.67;24.55;;;;;;;;;;5019259;28;97418;-76
2022/01/22 19:40:54;;;;;;;50.25;24.92;;;;;;;;;;5021773;28;97078;-75
2022/01/22 19:43:21;;;;;;;38.85;23.70;;;;;;;;;;5019114;28;97127;-74
2022/01/22 19:45:48;;;;;;;46.75;22.98;;;;;;;;;;5023625;27;97397;-74
2022/01/22 19:48:15;;;;;;;40.85;21.25;;;;;;;;;;5019436;27;97109;-73
2022/01/22 19:50:42;;;;;;;42.17;22.13;;;;;;;;;;5020475;28;97781;-76
2022/01/22 19:53:10;;;;;;;35.38;21.77;;;;;;;;;;5020241;27;95860;-74
2022/01/22 19:55:37;;;;;;;50.25;23.40;;;;;;;;;;5021687;27;97051;-74
2022/01/22 19:58:04;;;;;;;35.28;22.67;;;;;;;;;;5020500;27;95875;-77
2022/01/22 20:00:31;;;;;;;35.22;22.75;;;;;;;;;;5023764;27;96672;-76
2022/01/22 20:02:58;;;;;;;43.90;23.83;;;;;;;;;;5021639;27;96751;-76
2022/01/22 20:05:25;;;;;;;40.58;23.27;;;;;;;;;;5021577;27;97411;-76
2022/01/22 20:07:52;;;;;;;44.63;23.80;;;;;;;;;;5031535;28;95203;-76
2022/01/22 20:10:20;;;;;;;47.45;23.38;;;;;;;;;;5030713;28;97653;-75
2022/01/22 20:12:47;;;;;;;45.63;23.40;;;;;;;;;;5032006;27;95363;-76
2022/01/22 20:15:13;;;;;;;42.95;24.35;;;;;;;;;;5034248;27;97159;-76
2022/01/22 20:17:40;;;;;;;49.08;24.25;;;;;;;;;;5052110;27;96290;-74
2022/01/22 20:20:07;;;;;;;45.03;23.67;;;;;;;;;;5043798;27;95435;-75
2022/01/22 20:22:53;;;;;;;43.15;24.75;;;;;;;;;;5032425;28;98685;-75
2022/01/22 20:25:20;;;;;;;42.13;24.02;;;;;;;;;;5046901;27;97332;-75
2022/01/22 20:27:47;;;;;;;46.40;24.77;;;;;;;;;;5055820;27;95431;-76
2022/01/22 20:30:15;;;;;;;47.28;25.48;;;;;;;;;;5042278;27;97251;-77
2022/01/22 20:32:44;;;;;;;43.97;24.38;;;;;;;;;;5030394;28;95341;-74
2022/01/22 20:35:10;;;;;;;44.05;24.13;;;;;;;;;;5047083;27;97638;-77
2022/01/22 20:37:36;;;;;;;44.55;24.27;;;;;;;;;;5051906;27;97222;-74
2022/01/22 20:40:04;;;;;;;39.35;24.10;;;;;;;;;;5046759;27;95971;-74
2022/01/22 20:42:30;;;;;;;48.78;24.83;;;;;;;;;;5031443;28;96479;-76
2022/01/22 20:45:17;;;;;;;42.13;24.55;;;;;;;;;;5030655;28;96901;-74
2022/01/22 20:47:50;;;;;;;43.90;24.70;;;;;;;;;;5047033;27;95658;-75
2022/01/22 20:50:20;;;;;;;51.65;24.92;;;;;;;;;;5054989;27;96824;-75
2022/01/22 20:52:47;;;;;;;47.40;25.67;;;;;;;;;;5052513;27;95180;-73
2022/01/22 20:55:13;;;;;;;48.05;26.98;;;;;;;;;;5034840;27;95777;-76
2022/01/22 20:57:48;;;;;;;42.08;24.10;;;;;;;;;;5035130;28;97665;-73
2022/01/22 21:00:16;;;;;;;46.05;26.15;;;;;;;;;;5051288;27;95247;-73
2022/01/22 21:02:42;;;;;;;42.38;24.30;;;;;;;;;;5055684;27;96789;-73
2022/01/22 21:05:10;;;;;;;47.92;23.45;;;;;;;;;;5014154;28;97413;-73
2022/01/22 21:07:36;;;;;;;45.10;24.17;;;;;;;;;;5014608;28;95062;-73
2022/01/22 21:10:02;;;;;;;48.67;25.92;;;;;;;;;;5015103;28;96759;-72
2022/01/22 21:12:29;;;;;;;45.08;23.88;;;;;;;;;;5035188;27;97486;-73
2022/01/22 21:14:56;;;;;;;48.15;24.88;;;;;;;;;;5038953;27;96860;-73
2022/01/22 21:17:23;;;;;;;44.88;23.50;;;;;;;;;;5033156;28;97327;-73
2022/01/22 21:19:51;;;;;;;45.35;23.52;;;;;;;;;;5033986;28;95297;-74
2022/01/22 21:22:18;;;;;;;40.22;24.05;;;;;;;;;;5047216;27;96948;-75
2022/01/22 21:24:44;;;;;;;53.05;24.33;;;;;;;;;;5041973;27;96912;-76
2022/01/22 21:27:14;;;;;;;45.40;23.40;;;;;;;;;;5034814;27;95324;-74
2022/01/22 21:29:42;;;;;;;41.50;23.52;;;;;;;;;;5034649;28;96769;-74
2022/01/22 21:32:09;;;;;;;46.35;24.65;;;;;;;;;;5034383;28;97660;-76
2022/01/22 21:34:37;;;;;;;44.10;24.13;;;;;;;;;;5036516;27;95638;-76
2022/01/22 21:37:22;;;;;;;46.22;25.27;;;;;;;;;;5052528;27;97387;-77
2022/01/22 21:40:09;;;;;;;41.92;24.48;;;;;;;;;;5055428;27;96867;-74
2022/01/22 21:42:35;;;;;;;46.25;26.02;;;;;;;;;;5054168;27;96526;-76
2022/01/22 21:45:04;;;;;;;45.63;25.40;;;;;;;;;;5040678;27;97579;-75
2022/01/22 21:47:30;;;;;;;47.78;24.98;;;;;;;;;;5034094;27;95369;-75
2022/01/22 21:49:57;;;;;;;45.25;24.33;;;;;;;;;;5036672;27;96722;-77
2022/01/22 21:52:23;;;;;;;48.00;25.40;;;;;;;;;;5054075;27;97601;-76
2022/01/22 21:54:53;;;;;;;49.53;26.27;;;;;;;;;;5044211;27;95189;-77
2022/01/22 21:57:20;;;;;;;50.90;25.48;;;;;;;;;;5036758;27;96770;-76
2022/01/22 21:59:46;;;;;;;50.30;26.10;;;;;;;;;;5034259;27;95350;-76
2022/01/22 22:02:14;;;;;;;53.22;27.23;;;;;;;;;;5033490;28;96792;-76
2022/01/22 22:04:50;;;;;;;47.15;26.20;;;;;;;;;;5040719;27;96823;-76
2022/01/22 22:07:17;;;;;;;52.85;27.33;;;;;;;;;;5052722;27;95294;-75
2022/01/22 22:09:43;;;;;;;52.97;29.08;;;;;;;;;;5054196;27;97216;-76
2022/01/22 22:12:10;;;;;;;57.67;29.90;;;;;;;;;;5053691;27;97374;-74
2022/01/22 22:14:36;;;;;;;52.80;28.80;;;;;;;;;;5048905;27;95199;-76
2022/01/22 22:17:03;;;;;;;55.42;29.10;;;;;;;;;;5033400;27;95918;-76
2022/01/22 22:19:29;;;;;;;51.33;28.77;;;;;;;;;;5037875;27;97429;-74
2022/01/22 22:21:56;;;;;;;51.72;27.92;;;;;;;;;;5034090;27;96895;-75
2022/01/22 22:24:22;;;;;;;51.58;28.30;;;;;;;;;;5032688;28;96145;-76
2022/01/22 22:26:48;;;;;;;52.53;27.60;;;;;;;;;;5034092;28;95311;-75
2022/01/22 22:29:15;;;;;;;52.67;27.10;;;;;;;;;;5033699;28;97045;-74
2022/01/22 22:31:41;;;;;;;56.63;28.30;;;;;;;;;;5032990;28;97319;-75
2022/01/22 22:34:08;;;;;;;52.28;28.92;;;;;;;;;;5041086;27;95251;-76
2022/01/22 22:36:34;;;;;;;57.97;31.45;;;;;;;;;;5033821;27;96718;-74
2022/01/22 22:39:00;;;;;;;50.28;28.88;;;;;;;;;;5036064;28;97242;-74
2022/01/22 22:41:28;;;;;;;53.92;27.38;;;;;;;;;;5033361;28;97350;-76
2022/01/22 22:43:54;;;;;;;54.28;28.48;;;;;;;;;;5032311;28;97783;-76
2022/01/22 22:46:21;;;;;;;53.72;27.33;;;;;;;;;;5032388;27;95400;-76
2022/01/22 22:48:47;;;;;;;57.83;28.75;;;;;;;;;;5046072;27;97136;-75
2022/01/22 22:51:15;;;;;;;55.78;28.73;;;;;;;;;;5034741;27;97187;-75
2022/01/22 22:53:41;;;;;;;59.85;27.73;;;;;;;;;;5031842;28;95186;-76
2022/01/22 22:56:07;;;;;;;49.75;27.33;;;;;;;;;;5033468;27;95679;-77
2022/01/22 22:58:34;;;;;;;53.45;27.00;;;;;;;;;;5033236;28;97522;-76
2022/01/22 23:01:08;;;;;;;49.75;27.40;;;;;;;;;;5035967;27;95312;-77
2022/01/22 23:03:35;;;;;;;57.13;28.15;;;;;;;;;;5038739;27;99616;-74
2022/01/22 23:06:03;;;;;;;61.15;29.60;;;;;;;;;;5048164;27;95325;-76
2022/01/22 23:08:29;;;;;;;52.83;26.65;;;;;;;;;;5033205;27;96795;-76
2022/01/22 23:10:55;;;;;;;52.95;27.65;;;;;;;;;;5032700;27;96237;-76
2022/01/22 23:13:28;;;;;;;49.45;27.02;;;;;;;;;;5032224;27;95084;-75
2022/01/22 23:15:59;;;;;;;52.78;28.85;;;;;;;;;;5032629;28;96869;-74
2022/01/22 23:21:18;;;;;;;53.08;27.58;;;;;;;;;;5053099;27;95082;-73
2022/01/22 23:26:32;;;;;;;59.20;28.70;;;;;;;;;;5048585;27;95331;-73
2022/01/22 23:28:59;;;;;;;54.45;28.58;;;;;;;;;;5041615;27;96995;-73
2022/01/22 23:31:31;;;;;;;47.53;27.10;;;;;;;;;;5051832;27;97601;-73
2022/01/22 23:34:03;;;;;;;45.03;25.42;;;;;;;;;;5012523;28;95317;-73
2022/01/22 23:36:57;;;;;;;57.95;26.92;;;;;;;;;;5015634;28;95413;-73
2022/01/22 23:55:45;;;;;;;42.70;23.70;;;;;;;;;;5032420;28;95378;-74
2022/01/22 23:58:24;;;;;;;43.13;23.30;;;;;;;;;;5043647;27;97076;-76
